Time;durP1;ratioP1;P1;durP2;ratioP2;P2;SDS_P1;SDS_P2;PMS_P1;PMS_P2;Temp;Humidity;BMP_temperature;BMP_pressure;BME280_temperature;BME280_humidity;BME280_pressure;Samples;Min_cycle;Max_cycle;Signal;HPM_P1;HPM_P2
2021/04/29 00:00:18;;;;;;;;;6.00;6.00;;;;;25.00;69.13;99156.03;4972690;28;9611;-77
2021/04/29 00:02:53;;;;;;;;;4.75;4.75;;;;;25.03;70.43;99164.19;4971924;28;8865;-76
2021/04/29 00:05:27;;;;;;;;;4.00;4.00;;;;;25.00;69.22;99169.53;4974324;28;9027;-77
2021/04/29 00:07:56;;;;;;;;;3.75;3.75;;;;;25.00;73.19;99177.63;4974787;28;8858;-76
2021/04/29 00:10:29;;;;;;;;;4.75;4.75;;;;;24.88;69.33;99167.69;4971891;28;8849;-76
2021/04/29 00:12:58;;;;;;;;;6.00;6.00;;;;;24.94;70.60;99187.88;4974355;28;8877;-76
2021/04/29 00:15:27;;;;;;;;;6.25;6.25;;;;;24.89;70.78;99181.97;4971996;28;8876;-76
2021/04/29 00:17:55;;;;;;;;;5.25;5.25;;;;;24.88;67.96;99180.41;4972981;28;8873;-76
2021/04/29 00:20:24;;;;;;;;;8.50;7.00;;;;;24.88;68.12;99180.41;4972578;28;8861;-75
2021/04/29 00:22:52;;;;;;;;;5.75;5.75;;;;;24.98;67.95;99185.28;4976581;28;8845;-78
2021/04/29 00:25:21;;;;;;;;;4.75;4.75;;;;;25.02;67.57;99189.63;4973145;28;8920;-76
2021/04/29 00:27:50;;;;;;;;;6.50;5.00;;;;;25.09;69.03;99199.81;4972467;28;8857;-76
2021/04/29 00:30:18;;;;;;;;;6.75;6.00;;;;;25.08;68.87;99198.25;4971903;28;8884;-76
2021/04/29 00:32:46;;;;;;;;;5.25;5.25;;;;;25.17;68.04;99203.44;4968080;28;8937;-77
2021/04/29 00:35:16;;;;;;;;;7.75;7.75;;;;;25.23;67.30;99207.44;4970106;28;8864;-75
2021/04/29 00:37:44;;;;;;;;;6.50;6.50;;;;;25.21;68.03;99207.00;4969689;28;8869;-76
2021/04/29 00:40:13;;;;;;;;;6.75;6.75;;;;;25.26;68.36;99218.31;4970712;28;8853;-76
2021/04/29 00:42:42;;;;;;;;;11.75;9.00;;;;;25.30;67.36;99213.78;4970510;28;8908;-76
2021/04/29 00:45:12;;;;;;;;;4.25;4.25;;;;;25.29;68.09;99212.22;4971784;28;8845;-75
2021/04/29 00:47:41;;;;;;;;;10.00;10.00;;;;;25.29;67.71;99212.22;4973082;28;9659;-74
2021/04/29 00:50:12;;;;;;;;;11.00;9.50;;;;;25.35;67.55;99221.59;4974652;28;8889;-75
2021/04/29 00:52:42;;;;;;;;;24.75;24.75;;;;;25.32;67.29;99213.41;4989293;28;8856;-74
2021/04/29 00:55:11;;;;;;;;;16.25;13.00;;;;;25.38;67.58;99222.03;4973095;28;9441;-75
2021/04/29 00:57:39;;;;;;;;;12.75;12.75;;;;;25.40;67.65;99230.56;4992622;28;8832;-74
2021/04/29 01:00:11;;;;;;;;;13.50;12.25;;;;;25.39;68.12;99224.38;4991265;28;8868;-74
2021/04/29 01:02:47;;;;;;;;;13.75;13.75;;;;;25.40;67.65;99227.84;4992356;28;9593;-72
2021/04/29 01:05:21;;;;;;;;;10.25;10.25;;;;;25.44;67.68;99239.53;4989809;28;8860;-74
2021/04/29 01:08:05;;;;;;;;;10.75;8.00;;;;;25.43;70.79;99246.84;4990507;28;8963;-75
2021/04/29 01:10:40;;;;;;;;;4.00;4.00;;;;;25.43;70.03;99249.53;4989459;28;8859;-74
2021/04/29 01:13:22;;;;;;;;;6.50;6.50;;;;;25.38;70.52;99259.84;4988640;28;8866;-76
2021/04/29 01:15:57;;;;;;;;;9.25;5.50;;;;;25.33;68.42;99250.88;4987789;28;8886;-74
2021/04/29 01:18:26;;;;;;;;;11.25;9.25;;;;;25.30;68.70;99246.16;4987947;28;8851;-75
2021/04/29 01:21:11;;;;;;;;;7.00;7.00;;;;;25.31;68.75;99255.84;4991571;28;8871;-74
2021/04/29 01:23:55;;;;;;;;;10.00;10.00;;;;;25.30;69.23;99256.97;4992642;28;8902;-75
2021/04/29 01:26:31;;;;;;;;;8.50;8.00;;;;;25.29;69.11;99260.81;4993207;28;8875;-78
2021/04/29 01:29:03;;;;;;;;;8.00;6.75;;;;;25.31;68.99;99268.56;4992674;28;8848;-72
2021/04/29 01:31:38;;;;;;;;;8.75;8.75;;;;;25.28;68.93;99261.16;4993380;28;8882;-73
2021/04/29 01:34:09;;;;;;;;;8.75;8.75;;;;;25.34;68.78;99263.25;4992457;28;8917;-72
2021/04/29 01:36:39;;;;;;;;;7.00;7.00;;;;;25.45;68.78;99271.56;4992509;28;8846;-76
2021/04/29 01:39:10;;;;;;;;;9.75;9.75;;;;;25.50;68.78;99271.31;4993070;28;8836;-76
2021/04/29 01:41:43;;;;;;;;;9.50;9.00;;;;;25.55;68.60;99264.84;4992679;28;8909;-75
2021/04/29 01:44:12;;;;;;;;;7.25;7.25;;;;;25.53;68.73;99259.00;4992028;28;8879;-75
2021/04/29 01:46:41;;;;;;;;;10.25;8.75;;;;;25.55;68.54;99271.03;4990517;28;8938;-76
2021/04/29 01:49:11;;;;;;;;;9.00;9.00;;;;;25.57;69.25;99273.38;4991072;28;8895;-75
2021/04/29 01:51:41;;;;;;;;;5.75;4.50;;;;;25.55;68.60;99278.34;4991322;28;8928;-75
2021/04/29 01:54:11;;;;;;;;;7.00;5.00;;;;;25.60;68.70;99292.38;4991552;28;8868;-75
2021/04/29 01:56:40;;;;;;;;;9.75;9.00;;;;;25.60;68.74;99289.66;4992507;28;8864;-75
2021/04/29 01:59:10;;;;;;;;;8.50;8.50;;;;;25.62;68.53;99289.31;4992245;28;8852;-75
2021/04/29 02:01:40;;;;;;;;;9.25;8.50;;;;;25.66;69.24;99298.31;4992120;28;8922;-74
2021/04/29 02:04:10;;;;;;;;;9.00;9.00;;;;;25.69;68.91;99289.50;4993371;28;8848;-75
2021/04/29 02:06:40;;;;;;;;;7.00;7.00;;;;;25.70;68.83;99284.88;4993424;28;8998;-75
2021/04/29 02:09:10;;;;;;;;;7.75;7.75;;;;;25.71;69.17;99292.63;4993421;28;8921;-75
2021/04/29 02:11:45;;;;;;;;;7.00;7.00;;;;;25.73;68.98;99294.97;4976143;28;8950;-75
2021/04/29 02:14:21;;;;;;;;;9.25;9.25;;;;;25.77;69.24;99288.50;4993158;28;8886;-75
2021/04/29 02:16:54;;;;;;;;;9.25;7.25;;;;;25.80;68.91;99295.13;4993181;28;8896;-74
2021/04/29 02:19:25;;;;;;;;;8.75;8.75;;;;;25.80;68.88;99287.81;4993290;28;8836;-74
2021/04/29 02:21:54;;;;;;;;;7.50;7.50;;;;;25.83;68.70;99292.50;4993122;28;8848;-75
2021/04/29 02:24:23;;;;;;;;;8.25;8.25;;;;;25.79;68.93;99282.75;4976399;28;8836;-75
2021/04/29 02:26:51;;;;;;;;;8.00;8.00;;;;;25.79;69.17;99286.22;4993035;28;8852;-74
2021/04/29 02:29:20;;;;;;;;;7.25;7.25;;;;;25.85;69.45;99292.13;4992579;28;9673;-74
2021/04/29 02:31:48;;;;;;;;;7.00;7.00;;;;;25.87;69.32;99298.75;4975491;28;8844;-75
2021/04/29 02:34:19;;;;;;;;;6.00;6.00;;;;;25.87;69.15;99290.66;4992357;28;8847;-75
2021/04/29 02:37:05;;;;;;;;;10.75;10.75;;;;;25.92;69.26;99295.78;4923757;29;8849;-74
2021/04/29 02:39:33;;;;;;;;;54.75;46.00;;;;;25.94;69.03;99288.09;4923645;29;8951;-75
2021/04/29 02:42:02;;;;;;;;;104.33;95.67;;;;;25.94;69.30;99290.78;4926410;29;11277;-74
2021/04/29 02:44:31;;;;;;;;;21.67;20.67;;;;;25.94;69.29;99298.91;4925091;29;8945;-75
2021/04/29 02:46:59;;;;;;;;;12.50;12.50;;;;;25.95;69.64;99289.66;4932608;29;8945;-75
2021/04/29 02:49:28;;;;;;;;;14.00;14.00;;;;;25.94;69.31;99293.50;4929082;29;8920;-75
2021/04/29 02:51:56;;;;;;;;;7.50;7.50;;;;;26.04;69.62;99294.03;4920907;29;8854;-73
2021/04/29 02:54:25;;;;;;;;;9.50;9.50;;;;;26.12;69.31;99295.75;4923322;29;9580;-75
2021/04/29 02:56:53;;;;;;;;;5.25;4.50;;;;;26.09;69.11;99288.34;4922880;29;8868;-76
2021/04/29 02:59:21;;;;;;;;;9.00;9.00;;;;;26.04;69.48;99285.94;4921468;29;8849;-75
2021/04/29 03:01:49;;;;;;;;;10.25;10.25;;;;;26.05;69.57;99290.97;4919569;29;8836;-74
2021/04/29 03:04:17;;;;;;;;;7.50;7.50;;;;;26.04;69.72;99296.75;4913445;29;8859;-75
2021/04/29 03:06:45;;;;;;;;;8.00;8.00;;;;;26.02;69.71;99297.88;4911383;29;8988;-74
2021/04/29 03:09:14;;;;;;;;;5.00;5.00;;;;;26.01;69.47;99288.22;4969078;28;8866;-75
2021/04/29 03:11:42;;;;;;;;;7.00;7.00;;;;;25.99;69.89;99289.72;4958684;28;9658;-75
2021/04/29 03:14:10;;;;;;;;;6.25;6.25;;;;;25.99;69.88;99298.63;4978038;28;8882;-75
2021/04/29 03:16:38;;;;;;;;;6.00;6.00;;;;;25.96;69.81;99291.22;4983893;28;8857;-75
2021/04/29 03:19:07;;;;;;;;;6.75;6.75;;;;;25.92;70.01;99300.41;4995542;28;8837;-74
2021/04/29 03:21:35;;;;;;;;;8.25;8.25;;;;;25.91;70.11;99294.22;4997500;28;8855;-76
2021/04/29 03:24:04;;;;;;;;;5.25;5.25;;;;;25.89;70.15;99296.47;4997375;28;8848;-76
2021/04/29 03:26:32;;;;;;;;;7.50;7.50;;;;;25.90;69.73;99289.94;4998645;28;8844;-75
2021/04/29 03:29:02;;;;;;;;;6.00;6.00;;;;;25.89;69.84;99291.06;4998745;28;8876;-76
2021/04/29 03:31:30;;;;;;;;;9.75;9.75;;;;;25.91;70.15;99302.31;4998654;28;8863;-75
2021/04/29 03:33:58;;;;;;;;;8.00;8.00;;;;;25.91;69.92;99296.91;4998894;28;9613;-76
2021/04/29 03:36:26;;;;;;;;;7.00;7.00;;;;;25.91;70.22;99301.53;4981679;28;8832;-76
2021/04/29 03:38:54;;;;;;;;;7.50;7.50;;;;;25.84;70.43;99294.06;4998612;28;8852;-77
2021/04/29 03:41:23;;;;;;;;;7.25;7.25;;;;;25.91;70.37;99305.03;4998670;28;8867;-76
2021/04/29 03:43:51;;;;;;;;;7.50;7.50;;;;;25.94;69.67;99303.53;4998280;28;8844;-74
2021/04/29 03:46:19;;;;;;;;;5.00;5.00;;;;;25.94;69.80;99298.91;4998152;28;8852;-73
2021/04/29 03:48:47;;;;;;;;;5.25;5.25;;;;;25.94;69.81;99298.91;4996014;28;8880;-75
2021/04/29 03:51:16;;;;;;;;;8.50;7.00;;;;;25.92;71.49;99298.47;4996742;28;8852;-73
2021/04/29 03:53:44;;;;;;;;;5.25;5.25;;;;;25.93;69.98;99300.03;4997392;28;8879;-73
2021/04/29 03:56:12;;;;;;;;;9.00;9.00;;;;;25.94;71.79;99304.31;4997370;28;8856;-72
2021/04/29 03:58:40;;;;;;;;;7.00;7.00;;;;;25.94;70.38;99301.59;4997053;28;8847;-75
2021/04/29 04:01:09;;;;;;;;;5.25;5.25;;;;;25.97;70.53;99302.81;4996886;28;8852;-75
2021/04/29 04:03:37;;;;;;;;;5.75;5.75;;;;;25.99;70.69;99306.72;4996813;28;8852;-75
2021/04/29 04:06:05;;;;;;;;;6.25;6.25;;;;;25.99;72.61;99309.44;4997394;28;8840;-74
2021/04/29 04:08:34;;;;;;;;;7.25;7.25;;;;;25.99;72.50;99317.53;4998601;28;8847;-74
2021/04/29 04:11:02;;;;;;;;;8.75;8.75;;;;;25.96;71.87;99317.47;4997512;28;8918;-75
2021/04/29 04:13:32;;;;;;;;;6.00;6.00;;;;;26.01;71.44;99330.69;4997980;28;8875;-75
2021/04/29 04:16:00;;;;;;;;;6.50;6.50;;;;;26.01;71.96;99326.06;4997375;28;8856;-76
2021/04/29 04:18:28;;;;;;;;;8.50;8.50;;;;;26.04;72.19;99318.38;4997574;28;8840;-78
2021/04/29 04:20:57;;;;;;;;;8.00;8.00;;;;;26.06;71.59;99314.19;4997446;28;9007;-77
2021/04/29 04:23:25;;;;;;;;;5.25;5.25;;;;;26.05;71.76;99307.19;4994783;28;8934;-76
2021/04/29 04:25:53;;;;;;;;;7.50;7.50;;;;;26.07;70.18;99309.56;4994651;28;8934;-78
2021/04/29 04:28:21;;;;;;;;;7.00;7.00;;;;;26.05;69.22;99292.91;4994190;28;8882;-76
2021/04/29 04:30:49;;;;;;;;;6.25;6.25;;;;;26.01;68.45;99292.81;4988708;28;8859;-75
2021/04/29 04:33:18;;;;;;;;;4.75;4.75;;;;;25.96;68.49;99280.41;4993806;28;9625;-75
2021/04/29 04:35:46;;;;;;;;;7.25;7.25;;;;;26.05;71.81;99290.97;4993929;28;8859;-75
2021/04/29 04:38:14;;;;;;;;;5.50;5.50;;;;;25.96;69.48;99276.91;4992989;28;8836;-75
2021/04/29 04:40:43;;;;;;;;;4.50;4.50;;;;;25.94;69.24;99288.09;4992955;28;9602;-75
2021/04/29 04:43:12;;;;;;;;;5.00;5.00;;;;;25.87;68.86;99296.06;4992996;28;8926;-74
2021/04/29 04:45:43;;;;;;;;;3.75;3.75;;;;;25.84;69.46;99291.34;4991979;28;8908;-76
2021/04/29 04:48:11;;;;;;;;;4.00;4.00;;;;;25.83;69.40;99289.78;4973428;28;8860;-76
2021/04/29 04:50:40;;;;;;;;;4.75;4.75;;;;;25.81;68.18;99283.97;4992268;28;8828;-76
2021/04/29 04:53:08;;;;;;;;;4.75;4.75;;;;;25.81;67.66;99278.56;4990093;28;8855;-76
2021/04/29 04:55:42;;;;;;;;;6.25;6.25;;;;;25.76;68.02;99269.94;4992778;28;8859;-73
2021/04/29 04:58:10;;;;;;;;;1.25;1.25;;;;;25.89;68.55;99276.78;4993823;28;8890;-76
2021/04/29 05:00:39;;;;;;;;;5.25;5.25;;;;;25.86;68.67;99266.69;4990065;28;9573;-75
2021/04/29 05:03:07;;;;;;;;;4.25;4.25;;;;;25.84;68.72;99264.34;4991338;28;8832;-75
2021/04/29 05:05:36;;;;;;;;;5.25;5.25;;;;;25.80;68.54;99257.28;4992637;28;8905;-73
2021/04/29 05:08:06;;;;;;;;;3.75;3.75;;;;;25.72;68.10;99248.25;4990225;28;8836;-76
2021/04/29 05:10:35;;;;;;;;;2.33;2.33;;;;;25.75;68.03;99257.56;4992835;28;8844;-73
2021/04/29 05:13:06;;;;;;;;;3.25;3.25;;;;;25.74;68.42;99248.69;4992059;28;8895;-74
2021/04/29 05:15:36;;;;;;;;;4.50;4.50;;;;;25.72;68.25;99248.25;4990181;28;8832;-73
2021/04/29 05:18:05;;;;;;;;;4.25;4.25;;;;;25.71;68.30;99237.81;4992604;28;8966;-75
2021/04/29 05:20:37;;;;;;;;;4.25;4.25;;;;;25.71;69.05;99232.41;4992168;28;9025;-75
2021/04/29 05:23:05;;;;;;;;;5.50;4.00;;;;;25.70;68.25;99217.31;4972959;28;8838;-75
2021/04/29 05:25:34;;;;;;;;;4.00;4.00;;;;;25.67;68.30;99205.31;4973228;28;8842;-76
2021/04/29 05:28:03;;;;;;;;;2.75;2.75;;;;;25.61;68.26;99196.66;4973347;28;8850;-76
2021/04/29 05:30:32;;;;;;;;;4.75;4.75;;;;;25.55;68.29;99190.00;4981633;28;8856;-76
2021/04/29 05:33:00;;;;;;;;;3.25;3.25;;;;;25.62;68.45;99194.75;4973105;28;8876;-77
2021/04/29 05:35:29;;;;;;;;;4.00;4.00;;;;;25.60;68.60;99197.81;4990295;28;8840;-77
2021/04/29 05:37:57;;;;;;;;;3.25;3.25;;;;;25.51;68.18;99172.94;4991853;28;8840;-79
2021/04/29 05:40:28;;;;;;;;;7.50;6.75;;;;;25.56;68.52;99179.97;4992019;28;8839;-76
2021/04/29 05:42:57;;;;;;;;;4.25;4.00;;;;;25.58;68.43;99180.38;4989716;28;8922;-76
2021/04/29 05:45:25;;;;;;;;;3.00;3.00;;;;;25.51;68.78;99167.53;4992298;28;9039;-76
2021/04/29 05:47:54;;;;;;;;;3.75;3.75;;;;;25.57;68.05;99170.72;4989571;28;8840;-77
2021/04/29 05:50:22;;;;;;;;;4.00;4.00;;;;;25.55;68.48;99164.91;4990920;28;8848;-76
2021/04/29 05:52:53;;;;;;;;;6.00;6.00;;;;;25.58;68.31;99156.06;4991464;28;8840;-75
2021/04/29 05:55:29;;;;;;;;;4.50;4.50;;;;;25.55;69.56;99144.06;4991162;28;8943;-74
2021/04/29 05:57:59;;;;;;;;;5.00;5.00;;;;;25.50;68.80;99127.38;4989837;28;8854;-74
2021/04/29 06:00:28;;;;;;;;;1.75;1.75;;;;;25.38;68.91;99111.31;4992768;28;9677;-76
2021/04/29 06:02:56;;;;;;;;;6.75;6.75;;;;;25.40;69.08;99103.63;4992113;28;8842;-75
2021/04/29 06:05:24;;;;;;;;;5.50;5.50;;;;;25.46;68.77;99096.81;4992746;28;8832;-74
2021/04/29 06:08:00;;;;;;;;;4.00;4.00;;;;;25.49;69.06;99096.09;4992109;28;8852;-75
2021/04/29 06:10:30;;;;;;;;;8.50;8.25;;;;;25.52;69.14;99088.06;4991679;28;8840;-79
2021/04/29 06:12:58;;;;;;;;;8.75;8.00;;;;;25.46;69.13;99056.28;4990077;28;8836;-77
2021/04/29 06:15:27;;;;;;;;;7.50;6.00;;;;;25.53;69.25;99059.13;4974326;28;8844;-75
2021/04/29 06:17:56;;;;;;;;;8.50;7.25;;;;;25.49;69.02;99037.44;4988306;28;9559;-78
2021/04/29 06:20:26;;;;;;;;;7.25;7.25;;;;;25.55;68.88;99041.41;4990034;28;8840;-77
2021/04/29 06:22:55;;;;;;;;;11.00;7.50;;;;;25.36;68.76;99011.75;4992209;28;8950;-76
2021/04/29 06:25:23;;;;;;;;;6.25;6.00;;;;;25.44;69.15;99026.16;4975791;28;8959;-73
2021/04/29 06:27:51;;;;;;;;;7.00;7.00;;;;;25.50;68.72;99030.13;4992428;28;8875;-75
2021/04/29 06:30:20;;;;;;;;;6.75;5.75;;;;;25.48;69.51;99029.72;4980480;28;8832;-78
2021/04/29 06:32:48;;;;;;;;;5.25;5.25;;;;;25.46;70.94;99023.88;4989773;28;8959;-75
2021/04/29 06:35:17;;;;;;;;;5.00;5.00;;;;;25.44;68.93;99009.94;4990828;28;8848;-77
2021/04/29 06:37:45;;;;;;;;;6.00;6.00;;;;;25.49;69.31;99009.66;4969271;28;9722;-76
2021/04/29 06:40:14;;;;;;;;;3.50;3.50;;;;;25.46;69.94;98999.56;4972906;28;9649;-76
2021/04/29 06:42:42;;;;;;;;;10.50;7.00;;;;;25.53;69.56;99002.41;4986779;28;8971;-80
2021/04/29 06:45:11;;;;;;;;;8.25;6.25;;;;;25.49;71.01;99001.56;4991147;28;8848;-75
2021/04/29 06:47:39;;;;;;;;;7.00;7.00;;;;;25.44;70.29;98997.22;4989368;28;8854;-74
2021/04/29 06:50:10;;;;;;;;;7.50;6.75;;;;;25.36;69.30;98987.44;4973963;28;8848;-74
2021/04/29 06:52:38;;;;;;;;;5.50;5.50;;;;;25.39;69.25;98980.53;4989959;28;8918;-75
2021/04/29 06:55:07;;;;;;;;;5.00;5.00;;;;;25.38;70.59;98981.69;4989816;28;8851;-74
2021/04/29 06:57:35;;;;;;;;;6.00;6.00;;;;;25.38;69.66;98968.19;4981378;28;9647;-74
2021/04/29 07:00:04;;;;;;;;;5.75;5.75;;;;;25.39;69.48;98959.72;4985514;28;8848;-76
2021/04/29 07:02:32;;;;;;;;;5.75;5.75;;;;;25.42;69.46;98952.81;4989720;28;8864;-78
2021/04/29 07:05:04;;;;;;;;;6.25;6.25;;;;;25.43;69.26;98941.66;4978474;28;8844;-76
2021/04/29 07:07:32;;;;;;;;;5.00;5.00;;;;;25.46;69.64;98930.13;4989871;28;9570;-79
2021/04/29 07:10:00;;;;;;;;;5.50;5.50;;;;;25.46;69.41;98924.72;4968551;28;8880;-80
2021/04/29 07:12:28;;;;;;;;;7.50;7.00;;;;;25.41;69.21;98914.22;4990725;28;8850;-76
2021/04/29 07:14:57;;;;;;;;;6.75;6.50;;;;;25.46;69.45;98908.53;4984374;28;8857;-79
2021/04/29 07:17:25;;;;;;;;;5.75;5.75;;;;;25.46;69.16;98899.66;4988732;28;8846;-78
2021/04/29 07:19:58;;;;;;;;;3.00;3.00;;;;;25.47;69.47;98888.47;4977912;28;9592;-79
2021/04/29 07:22:27;;;;;;;;;9.00;6.75;;;;;25.48;69.79;98887.34;4990938;28;8838;-77
2021/04/29 07:24:55;;;;;;;;;7.50;6.25;;;;;25.48;69.59;98887.34;4990163;28;8855;-78
2021/04/29 07:27:23;;;;;;;;;5.50;5.50;;;;;25.45;69.65;98885.38;4994737;28;8848;-78
2021/04/29 07:29:51;;;;;;;;;7.00;7.00;;;;;25.53;69.94;98883.56;4990229;28;8871;-77
2021/04/29 07:32:19;;;;;;;;;5.50;4.25;;;;;25.54;69.90;98880.50;4990262;28;8827;-77
2021/04/29 07:34:47;;;;;;;;;5.75;5.75;;;;;25.56;70.31;98889.00;4990209;28;8863;-75
2021/04/29 07:37:16;;;;;;;;;5.75;5.75;;;;;25.60;70.32;98880.97;4990608;28;8840;-79
2021/04/29 07:39:44;;;;;;;;;10.50;7.50;;;;;25.63;70.10;98872.13;4973831;28;8832;-80
2021/04/29 07:42:12;;;;;;;;;7.75;6.50;;;;;25.66;70.38;98868.75;4987691;28;8824;-76
2021/04/29 07:44:41;;;;;;;;;6.50;6.00;;;;;25.70;69.96;98856.06;4990673;28;8840;-79
2021/04/29 07:47:09;;;;;;;;;6.00;4.25;;;;;25.73;70.34;98849.16;4992351;28;8848;-76
2021/04/29 07:49:39;;;;;;;;;6.75;6.50;;;;;25.75;70.39;98854.97;4970644;28;8840;-77
2021/04/29 07:52:07;;;;;;;;;8.50;6.75;;;;;25.75;70.38;98844.16;4990229;28;8828;-82
2021/04/29 07:54:36;;;;;;;;;7.50;6.75;;;;;25.76;70.52;98845.72;4991464;28;8832;-79
2021/04/29 07:57:05;;;;;;;;;9.00;7.75;;;;;25.76;70.72;98834.91;4973331;28;8856;-78
2021/04/29 07:59:35;;;;;;;;;15.25;15.25;;;;;25.80;70.69;98841.16;4994639;28;8824;-80
2021/04/29 08:02:04;;;;;;;;;7.75;6.75;;;;;25.81;70.85;98831.88;4995178;28;8974;-78
2021/04/29 08:04:33;;;;;;;;;6.75;6.75;;;;;25.86;70.45;98836.97;4994486;28;8836;-80
2021/04/29 08:07:01;;;;;;;;;6.25;6.25;;;;;25.93;71.08;98839.78;4991471;28;8840;-82
2021/04/29 08:09:30;;;;;;;;;3.50;3.00;;;;;25.99;70.48;98841.00;4991674;28;9690;-83
2021/04/29 08:11:58;;;;;;;;;6.50;6.50;;;;;26.05;70.23;98844.94;5000507;28;9589;-79
2021/04/29 08:14:27;;;;;;;;;6.75;6.75;;;;;26.14;70.43;98848.13;4995053;28;8844;-80
2021/04/29 08:16:55;;;;;;;;;5.00;5.00;;;;;26.19;70.57;98866.75;4995177;28;8858;-80
2021/04/29 08:19:25;;;;;;;;;5.50;5.50;;;;;26.26;70.06;98861.41;4999579;28;8836;-79
2021/04/29 08:21:53;;;;;;;;;5.25;5.25;;;;;26.33;70.18;98866.16;4993172;28;8840;-80
2021/04/29 08:24:21;;;;;;;;;12.00;12.00;;;;;26.28;69.84;98861.03;4990978;28;8847;-78
2021/04/29 08:26:51;;;;;;;;;28.00;28.00;;;;;26.39;69.70;98878.22;4990772;28;8855;-76
2021/04/29 08:29:19;;;;;;;;;5.75;5.75;;;;;26.46;69.62;98872.88;4991093;28;9322;-78
2021/04/29 08:31:50;;;;;;;;;7.75;7.75;;;;;26.48;69.42;98867.88;4990420;28;8847;-78
2021/04/29 08:34:18;;;;;;;;;6.25;6.25;;;;;26.50;69.18;98870.22;4993052;28;8941;-78
2021/04/29 08:36:47;;;;;;;;;7.25;7.25;;;;;26.53;69.24;98877.59;4992437;28;8836;-79
2021/04/29 08:39:15;;;;;;;;;7.75;7.75;;;;;26.51;69.30;98877.97;4993570;28;8837;-83
2021/04/29 08:41:44;;;;;;;;;7.00;7.00;;;;;26.51;69.22;98880.69;4989137;28;8868;-85
2021/04/29 08:44:12;;;;;;;;;5.00;5.00;;;;;26.50;69.35;98876.41;4995251;28;8840;-79
2021/04/29 08:46:42;;;;;;;;;9.25;9.25;;;;;26.48;69.23;98881.41;4990515;28;8859;-79
2021/04/29 08:49:10;;;;;;;;;5.75;5.75;;;;;26.47;69.09;98881.78;4992090;28;9605;-76
2021/04/29 08:51:38;;;;;;;;;6.25;6.25;;;;;26.51;69.33;98890.72;4991204;28;9572;-76
2021/04/29 08:54:06;;;;;;;;;9.00;9.00;;;;;26.53;68.96;98888.41;4994090;28;8836;-80
2021/04/29 08:56:36;;;;;;;;;5.50;5.50;;;;;26.53;68.87;98883.00;4992640;28;8839;-81
2021/04/29 08:59:04;;;;;;;;;6.25;6.25;;;;;26.51;69.01;98875.28;4989178;28;8848;-77
2021/04/29 09:01:44;;;;;;;;;6.25;6.25;;;;;26.51;68.75;98869.84;4988550;28;8937;-78
2021/04/29 09:04:15;;;;;;;;;5.75;5.75;;;;;26.49;69.05;98869.44;4988635;28;8848;-80
2021/04/29 09:06:45;;;;;;;;;7.25;7.25;;;;;26.47;68.95;98868.25;4990566;28;8884;-77
2021/04/29 09:09:15;;;;;;;;;5.75;5.75;;;;;26.46;68.53;98866.69;4989293;28;8883;-77
2021/04/29 09:11:51;;;;;;;;;8.00;8.00;;;;;26.41;68.84;98858.91;4989111;28;9601;-78
2021/04/29 09:14:38;;;;;;;;;5.75;5.75;;;;;26.46;68.89;98861.28;4990837;28;8910;-77
2021/04/29 09:17:07;;;;;;;;;5.25;5.25;;;;;26.46;68.72;98859.38;4994327;28;8848;-80
2021/04/29 09:19:47;;;;;;;;;6.50;6.50;;;;;26.45;68.86;98857.81;4974220;28;8941;-77
2021/04/29 09:22:21;;;;;;;;;7.00;7.00;;;;;26.44;68.74;98855.47;4989885;28;8902;-83
2021/04/29 09:24:49;;;;;;;;;5.25;5.25;;;;;26.44;68.58;98853.53;4990961;28;8848;-76
2021/04/29 09:27:25;;;;;;;;;6.75;6.75;;;;;26.40;68.62;98852.72;4991160;28;8821;-78
2021/04/29 09:29:59;;;;;;;;;6.50;6.50;;;;;26.39;68.75;98850.38;4974545;28;8836;-80
2021/04/29 09:32:34;;;;;;;;;4.00;4.00;;;;;26.38;68.54;98846.13;4988523;28;8854;-83
2021/04/29 09:35:16;;;;;;;;;5.75;5.75;;;;;26.39;68.74;98844.97;4990188;28;8839;-82
2021/04/29 09:37:45;;;;;;;;;7.00;7.00;;;;;26.40;68.52;98838.41;4982889;28;8857;-85
2021/04/29 09:40:30;;;;;;;;;6.25;6.25;;;;;26.36;68.17;98837.59;4982719;28;8976;-81
2021/04/29 09:43:00;;;;;;;;;3.50;3.50;;;;;26.39;68.25;98828.75;4987700;28;8935;-82
2021/04/29 09:45:33;;;;;;;;;3.75;3.75;;;;;26.33;68.34;98826.38;4998259;28;8859;-80
2021/04/29 09:48:07;;;;;;;;;4.33;4.33;;;;;26.36;68.38;98837.59;4989725;28;8871;-79
2021/04/29 09:50:42;;;;;;;;;6.50;4.50;;;;;26.36;68.34;98837.59;4988237;28;8855;-81
2021/04/29 09:53:16;;;;;;;;;7.75;7.75;;;;;26.35;68.27;98836.81;4978602;28;8898;-74
2021/04/29 09:55:48;;;;;;;;;6.25;6.00;;;;;26.35;68.55;98838.75;4971636;28;8854;-79
2021/04/29 09:58:19;;;;;;;;;5.50;5.50;;;;;26.35;68.51;98844.16;4975856;28;8961;-76
2021/04/29 10:00:51;;;;;;;;;6.50;6.50;;;;;26.37;68.48;98848.06;4990324;28;8863;-81
2021/04/29 10:03:20;;;;;;;;;5.00;5.00;;;;;26.45;68.16;98854.31;4996063;28;8835;-83
2021/04/29 10:05:52;;;;;;;;;3.75;3.75;;;;;26.48;68.49;98859.78;4994072;28;8824;-83
2021/04/29 10:08:28;;;;;;;;;6.00;6.00;;;;;26.55;68.13;98859.84;5002573;28;8852;-80
2021/04/29 10:10:58;;;;;;;;;4.00;4.00;;;;;26.62;67.91;98857.22;4999172;28;8858;-85
2021/04/29 10:13:32;;;;;;;;;6.75;6.75;;;;;26.72;67.75;98852.28;4999821;28;8857;-85
2021/04/29 10:16:04;;;;;;;;;5.25;5.25;;;;;26.69;67.68;98845.69;4995938;28;8856;-81
2021/04/29 10:18:32;;;;;;;;;2.00;2.00;;;;;26.69;67.42;98836.81;4968778;28;8844;-78
2021/04/29 10:21:01;;;;;;;;;5.50;5.50;;;;;26.71;67.45;98840.69;4999451;28;8846;-80
2021/04/29 10:23:30;;;;;;;;;6.00;6.00;;;;;26.65;67.62;98840.25;5002035;28;8892;-86
2021/04/29 10:26:00;;;;;;;;;4.50;4.50;;;;;26.65;67.54;98832.13;4987731;28;8848;-80
2021/04/29 10:28:44;;;;;;;;;6.00;6.00;;;;;26.64;67.77;98836.00;4993799;28;8955;-82
2021/04/29 10:31:34;;;;;;;;;5.00;5.00;;;;;26.67;68.54;98845.28;4998525;28;8832;-84
2021/04/29 10:34:16;;;;;;;;;6.00;6.00;;;;;26.69;67.62;98853.03;5006085;28;8837;-79
2021/04/29 10:36:48;;;;;;;;;4.75;4.75;;;;;26.70;67.35;98846.47;4993674;28;8878;-81
2021/04/29 10:39:25;;;;;;;;;4.75;4.75;;;;;26.70;67.30;98844.56;4983092;28;8830;-81
2021/04/29 10:42:12;;;;;;;;;4.25;4.25;;;;;26.69;66.93;98839.50;4992646;28;8860;-79
2021/04/29 10:44:45;;;;;;;;;4.00;4.00;;;;;26.69;66.35;98839.50;4975660;28;8851;-85
2021/04/29 10:47:26;;;;;;;;;5.00;5.00;;;;;26.73;66.50;98851.16;4990477;28;8845;-85
2021/04/29 10:50:16;;;;;;;;;4.00;4.00;;;;;26.79;66.10;98857.78;4988626;28;8840;-82
2021/04/29 10:52:57;;;;;;;;;5.25;5.25;;;;;26.84;65.95;98854.75;4997888;28;8840;-84
2021/04/29 10:55:28;;;;;;;;;5.25;5.25;;;;;26.87;65.94;98864.81;5002855;28;8848;-87
2021/04/29 10:57:58;;;;;;;;;5.00;5.00;;;;;26.87;65.97;98860.19;5000513;28;10603;-87
2021/04/29 11:00:34;;;;;;;;;6.25;6.25;;;;;26.89;67.90;98862.53;4995481;28;9006;-89
2021/04/29 11:03:07;;;;;;;;;6.25;6.25;;;;;26.92;68.31;98878.78;4988213;28;8867;-79
2021/04/29 11:05:37;;;;;;;;;5.50;5.50;;;;;26.92;67.08;98895.03;4989006;28;8862;-84
2021/04/29 11:08:09;;;;;;;;;6.25;6.25;;;;;26.88;67.02;98888.81;4990402;28;9578;-80
2021/04/29 11:10:40;;;;;;;;;6.75;6.75;;;;;26.83;68.29;98885.66;4991965;28;8954;-88
2021/04/29 11:13:08;;;;;;;;;4.25;4.25;;;;;26.75;69.43;98884.81;4991137;28;8940;-79
2021/04/29 11:15:40;;;;;;;;;5.75;5.75;;;;;26.83;68.95;98896.47;4990616;28;9582;-79
2021/04/29 11:18:20;;;;;;;;;5.50;5.50;;;;;26.75;69.43;98894.84;4985058;28;8832;-78
2021/04/29 11:21:05;;;;;;;;;6.25;6.25;;;;;26.78;69.75;98910.34;4983349;28;8834;-82
2021/04/29 11:23:48;;;;;;;;;7.00;7.00;;;;;26.83;69.67;98920.84;4992211;28;8916;-86
2021/04/29 11:26:19;;;;;;;;;5.50;5.50;;;;;26.84;69.55;98923.19;4994005;28;8856;-82
2021/04/29 11:28:51;;;;;;;;;2.75;2.75;;;;;26.87;69.35;98937.91;4997905;28;8971;-87
2021/04/29 11:31:22;;;;;;;;;6.00;6.00;;;;;26.85;69.16;98938.28;4998223;28;8816;-87
2021/04/29 11:33:57;;;;;;;;;5.75;5.75;;;;;26.88;69.30;98947.59;4988649;28;8875;-86
2021/04/29 11:36:26;;;;;;;;;6.75;6.75;;;;;26.87;69.14;98952.22;5001467;28;8836;-83
2021/04/29 11:38:57;;;;;;;;;1.50;1.50;;;;;26.90;68.33;98958.81;4976557;28;8842;-87
2021/04/29 11:41:27;;;;;;;;;4.75;4.75;;;;;26.90;67.19;98969.66;4984260;28;8861;-80
2021/04/29 11:43:59;;;;;;;;;3.75;3.75;;;;;26.90;66.42;98965.00;5000909;28;8828;-84
2021/04/29 11:46:28;;;;;;;;;4.50;4.50;;;;;26.91;66.36;98971.19;4974649;28;8824;-82
2021/04/29 11:49:15;;;;;;;;;5.75;5.75;;;;;26.91;66.79;98976.63;4995006;28;8816;-86
2021/04/29 11:51:46;;;;;;;;;5.00;5.00;;;;;26.87;66.42;98976.56;4992873;28;8858;-80
2021/04/29 11:54:17;;;;;;;;;6.00;6.00;;;;;26.83;66.67;98986.59;4976904;28;8951;-83
2021/04/29 11:56:48;;;;;;;;;5.00;5.00;;;;;26.83;66.79;98999.34;4999252;28;8867;-83